BOX582 RKSI-VHHH
Flight info
| Callsign | BOX582 |
|---|---|
| Flight time | N/A |
| Altitude | 34000 |
| Route | BOPTA2Y/34R BOPTA Z51 BEDES Y711 MUGUS Y742 SALMI Q11 DRAKE A1 ELATO V522 ABBEY ABEY4A |
| Aircraft | B77L/H-SDE1E2E3FGHIJ2J3J4J5M1RWXY/LB1D1 |
Departure
| Time | 2026-05-01 10:28 |
|---|---|
| Airport | Incheon International Airport (RKSI) |
Arrival
| Time | N/A |
|---|---|
| Airport | Hong Kong International Airport (VHHH) |
| Time | Latitude | Longitude | Altitude | Speed | Heading |
|---|---|---|---|---|---|
| 2026-05-01 09:41 | 37.47248 | 126.46002 | 36 ft | 0 kts | 144° |
| 2026-05-01 10:06 | 37.47258 | 126.45994 | 35 ft | 2 kts | 144° |
| 2026-05-01 10:06 | 37.47270 | 126.45983 | 35 ft | 2 kts | 144° |
| 2026-05-01 10:06 | 37.47282 | 126.45972 | 35 ft | 2 kts | 144° |
| 2026-05-01 10:07 | 37.47294 | 126.45961 | 35 ft | 2 kts | 145° |
| 2026-05-01 10:07 | 37.47308 | 126.45953 | 35 ft | 2 kts | 168° |
| 2026-05-01 10:07 | 37.47322 | 126.45952 | 35 ft | 2 kts | 188° |
| 2026-05-01 10:07 | 37.47337 | 126.45956 | 35 ft | 2 kts | 206° |
| 2026-05-01 10:08 | 37.47354 | 126.45975 | 35 ft | 1 kts | 236° |
| 2026-05-01 10:08 | 37.47355 | 126.45977 | 35 ft | 0 kts | 236° |
| 2026-05-01 10:10 | 37.47354 | 126.45975 | 35 ft | 1 kts | 236° |
| 2026-05-01 10:11 | 37.47336 | 126.45943 | 35 ft | 7 kts | 234° |
| 2026-05-01 10:11 | 37.47297 | 126.45873 | 35 ft | 12 kts | 234° |
| 2026-05-01 10:11 | 37.47245 | 126.45780 | 35 ft | 12 kts | 234° |
| 2026-05-01 10:11 | 37.47196 | 126.45694 | 35 ft | 11 kts | 234° |
| 2026-05-01 10:12 | 37.47150 | 126.45612 | 35 ft | 11 kts | 234° |
| 2026-05-01 10:12 | 37.47118 | 126.45554 | 35 ft | 11 kts | 235° |
| 2026-05-01 10:12 | 37.46953 | 126.45606 | 35 ft | 16 kts | 144° |
| 2026-05-01 10:13 | 37.46848 | 126.45699 | 35 ft | 20 kts | 144° |
| 2026-05-01 10:13 | 37.46727 | 126.45806 | 35 ft | 22 kts | 144° |
| 2026-05-01 10:13 | 37.46600 | 126.45920 | 35 ft | 21 kts | 144° |
| 2026-05-01 10:14 | 37.46374 | 126.46121 | 35 ft | 19 kts | 144° |
| 2026-05-01 10:14 | 37.46283 | 126.46201 | 35 ft | 10 kts | 149° |
| 2026-05-01 10:14 | 37.46222 | 126.46189 | 35 ft | 9 kts | 222° |
| 2026-05-01 10:14 | 37.46202 | 126.46161 | 35 ft | 0 kts | 233° |
| 2026-05-01 10:16 | 37.46202 | 126.46160 | 35 ft | 0 kts | 233° |
| 2026-05-01 10:16 | 37.46193 | 126.46145 | 35 ft | 5 kts | 233° |
| 2026-05-01 10:16 | 37.46090 | 126.45966 | 35 ft | 15 kts | 235° |
| 2026-05-01 10:17 | 37.46027 | 126.45850 | 35 ft | 15 kts | 235° |
| 2026-05-01 10:17 | 37.45899 | 126.45627 | 35 ft | 16 kts | 234° |
| 2026-05-01 10:17 | 37.45837 | 126.45505 | 35 ft | 15 kts | 253° |
| 2026-05-01 10:18 | 37.45747 | 126.45259 | 35 ft | 17 kts | 234° |
| 2026-05-01 10:18 | 37.45672 | 126.45126 | 35 ft | 19 kts | 234° |
| 2026-05-01 10:18 | 37.45589 | 126.44979 | 35 ft | 20 kts | 234° |
| 2026-05-01 10:19 | 37.45503 | 126.44828 | 35 ft | 21 kts | 234° |
| 2026-05-01 10:19 | 37.45409 | 126.44664 | 35 ft | 24 kts | 234° |
| 2026-05-01 10:19 | 37.45313 | 126.44494 | 35 ft | 22 kts | 234° |
| 2026-05-01 10:20 | 37.45178 | 126.44257 | 35 ft | 6 kts | 234° |
| 2026-05-01 10:20 | 37.45163 | 126.44231 | 35 ft | 0 kts | 234° |
| 2026-05-01 10:21 | 37.45163 | 126.44230 | 35 ft | 0 kts | 234° |
| 2026-05-01 10:21 | 37.45155 | 126.44216 | 35 ft | 4 kts | 234° |
| 2026-05-01 10:22 | 37.45085 | 126.44092 | 35 ft | 12 kts | 234° |
| 2026-05-01 10:22 | 37.44977 | 126.44022 | 35 ft | 10 kts | 145° |
| 2026-05-01 10:23 | 37.44912 | 126.44083 | 35 ft | 12 kts | 144° |
| 2026-05-01 10:23 | 37.44742 | 126.44234 | 35 ft | 16 kts | 144° |
| 2026-05-01 10:23 | 37.44651 | 126.44313 | 35 ft | 15 kts | 146° |
| 2026-05-01 10:24 | 37.44488 | 126.44394 | 35 ft | 11 kts | 223° |
| 2026-05-01 10:24 | 37.44424 | 126.44285 | 35 ft | 0 kts | 234° |
| 2026-05-01 10:25 | 37.44371 | 126.44192 | 35 ft | 9 kts | 234° |
| 2026-05-01 10:25 | 37.44379 | 126.44132 | 35 ft | 0 kts | 324° |
| 2026-05-01 10:27 | 37.44611 | 126.43924 | 35 ft | 77 kts | 324° |
| 2026-05-01 10:28 | 37.45251 | 126.43356 | 36 ft | 147 kts | 324° |
| 2026-05-01 10:28 | 37.47259 | 126.41564 | 1116 ft | 186 kts | 319° |
| 2026-05-01 10:28 | 37.48210 | 126.40588 | 1930 ft | 180 kts | 310° |
| 2026-05-01 10:29 | 37.49759 | 126.37712 | 2560 ft | 220 kts | 296° |
| 2026-05-01 10:29 | 37.50219 | 126.35773 | 2931 ft | 242 kts | 280° |
| 2026-05-01 10:30 | 37.49969 | 126.31589 | 4465 ft | 255 kts | 245° |
| 2026-05-01 10:30 | 37.47544 | 126.28028 | 5742 ft | 274 kts | 231° |
| 2026-05-01 10:31 | 37.44877 | 126.24564 | 7109 ft | 282 kts | 231° |
| 2026-05-01 10:31 | 37.41522 | 126.21915 | 8310 ft | 306 kts | 189° |
| 2026-05-01 10:32 | 37.37394 | 126.23312 | 9476 ft | 319 kts | 154° |
| 2026-05-01 10:32 | 37.35394 | 126.24514 | 10131 ft | 320 kts | 154° |
| 2026-05-01 10:32 | 37.31185 | 126.27059 | 10747 ft | 353 kts | 153° |
| 2026-05-01 10:33 | 37.26566 | 126.29848 | 11404 ft | 385 kts | 154° |
| 2026-05-01 10:33 | 37.21553 | 126.32872 | 12198 ft | 416 kts | 153° |
| 2026-05-01 10:34 | 37.18906 | 126.34467 | 12756 ft | 426 kts | 153° |
| 2026-05-01 10:34 | 37.16214 | 126.36086 | 13588 ft | 431 kts | 153° |
| 2026-05-01 10:34 | 37.13526 | 126.37703 | 14472 ft | 434 kts | 153° |
| 2026-05-01 10:35 | 37.08014 | 126.41014 | 15992 ft | 450 kts | 154° |
| 2026-05-01 10:35 | 37.05173 | 126.42719 | 16682 ft | 458 kts | 154° |
| 2026-05-01 10:35 | 37.02278 | 126.44454 | 16877 ft | 461 kts | 154° |
| 2026-05-01 10:35 | 36.99386 | 126.46186 | 16892 ft | 460 kts | 154° |
| 2026-05-01 10:36 | 36.93494 | 126.49711 | 18365 ft | 470 kts | 154° |
| 2026-05-01 10:36 | 36.90577 | 126.51453 | 19317 ft | 471 kts | 154° |
| 2026-05-01 10:36 | 36.87567 | 126.53250 | 19944 ft | 479 kts | 155° |
| 2026-05-01 10:37 | 36.84566 | 126.55039 | 20424 ft | 489 kts | 155° |
| 2026-05-01 10:37 | 36.78341 | 126.58747 | 21814 ft | 498 kts | 156° |
| 2026-05-01 10:37 | 36.75199 | 126.60611 | 22451 ft | 503 kts | 157° |
| 2026-05-01 10:38 | 36.71928 | 126.62130 | 22967 ft | 507 kts | 166° |
| 2026-05-01 10:38 | 36.68509 | 126.63321 | 23527 ft | 512 kts | 168° |
| 2026-05-01 10:38 | 36.65074 | 126.64473 | 24085 ft | 517 kts | 168° |
| 2026-05-01 10:38 | 36.61565 | 126.65646 | 24568 ft | 524 kts | 169° |
| 2026-05-01 10:39 | 36.58024 | 126.66829 | 25121 ft | 529 kts | 170° |
| 2026-05-01 10:39 | 36.54450 | 126.68023 | 25655 ft | 535 kts | 170° |
| 2026-05-01 10:39 | 36.50832 | 126.69231 | 26147 ft | 541 kts | 170° |
| 2026-05-01 10:39 | 36.47191 | 126.70447 | 26711 ft | 545 kts | 171° |
| 2026-05-01 10:40 | 36.43515 | 126.71674 | 27247 ft | 550 kts | 171° |
| 2026-05-01 10:40 | 36.39799 | 126.72912 | 27682 ft | 558 kts | 171° |
| 2026-05-01 10:40 | 36.36053 | 126.74165 | 28142 ft | 564 kts | 171° |
| 2026-05-01 10:40 | 36.32272 | 126.75441 | 28800 ft | 566 kts | 171° |
| 2026-05-01 10:41 | 36.28449 | 126.76732 | 29424 ft | 569 kts | 172° |
| 2026-05-01 10:41 | 36.24652 | 126.78011 | 30020 ft | 573 kts | 172° |
| 2026-05-01 10:41 | 36.16925 | 126.80350 | 31546 ft | 561 kts | 180° |
| 2026-05-01 10:42 | 36.13140 | 126.80746 | 32368 ft | 545 kts | 189° |
| 2026-05-01 10:42 | 36.09386 | 126.80575 | 33108 ft | 532 kts | 195° |
| 2026-05-01 10:42 | 36.05723 | 126.80200 | 33778 ft | 530 kts | 196° |
| 2026-05-01 10:42 | 36.02045 | 126.79799 | 33912 ft | 536 kts | 196° |
| 2026-05-01 10:43 | 35.98335 | 126.79397 | 33924 ft | 534 kts | 196° |
| 2026-05-01 10:43 | 35.90939 | 126.78601 | 33925 ft | 529 kts | 196° |
| 2026-05-01 10:44 | 35.83471 | 126.77789 | 33916 ft | 531 kts | 196° |
| 2026-05-01 10:44 | 35.76131 | 126.76997 | 33914 ft | 527 kts | 196° |
| 2026-05-01 10:45 | 35.68777 | 126.76201 | 33918 ft | 530 kts | 196° |
| 2026-05-01 10:45 | 35.61504 | 126.75417 | 33918 ft | 528 kts | 196° |
| 2026-05-01 10:46 | 35.54190 | 126.74631 | 33920 ft | 525 kts | 196° |
| 2026-05-01 10:46 | 35.46833 | 126.73837 | 33923 ft | 530 kts | 196° |
| 2026-05-01 10:47 | 35.39493 | 126.73056 | 33925 ft | 524 kts | 196° |
| 2026-05-01 10:47 | 35.32210 | 126.72276 | 33923 ft | 527 kts | 196° |
| 2026-05-01 10:48 | 35.24912 | 126.71497 | 33927 ft | 526 kts | 195° |
| 2026-05-01 10:48 | 35.17680 | 126.70727 | 33936 ft | 527 kts | 195° |
| 2026-05-01 10:49 | 35.10352 | 126.69946 | 33939 ft | 528 kts | 195° |
| 2026-05-01 10:49 | 35.03061 | 126.69178 | 33943 ft | 520 kts | 196° |
| 2026-05-01 10:50 | 34.95824 | 126.68405 | 33948 ft | 526 kts | 195° |
| 2026-05-01 10:50 | 34.88501 | 126.67631 | 33934 ft | 525 kts | 195° |
| 2026-05-01 10:51 | 34.81253 | 126.66866 | 33937 ft | 524 kts | 195° |
| 2026-05-01 10:51 | 34.74038 | 126.66108 | 33933 ft | 519 kts | 195° |
| 2026-05-01 10:52 | 34.66816 | 126.65344 | 33938 ft | 523 kts | 195° |
| 2026-05-01 10:52 | 34.59533 | 126.64578 | 33935 ft | 525 kts | 195° |
| 2026-05-01 10:53 | 34.52271 | 126.63818 | 33938 ft | 522 kts | 195° |
| 2026-05-01 10:53 | 34.45037 | 126.63060 | 33938 ft | 523 kts | 195° |
| 2026-05-01 10:54 | 34.37843 | 126.62312 | 33946 ft | 518 kts | 195° |
| 2026-05-01 10:54 | 34.30596 | 126.61552 | 33945 ft | 522 kts | 195° |
| 2026-05-01 10:55 | 34.23323 | 126.60797 | 33951 ft | 520 kts | 195° |
| 2026-05-01 10:55 | 34.16119 | 126.60046 | 33953 ft | 518 kts | 195° |
| 2026-05-01 10:56 | 34.08955 | 126.59299 | 33954 ft | 520 kts | 195° |
| 2026-05-01 10:56 | 34.01772 | 126.58553 | 33957 ft | 517 kts | 195° |
| 2026-05-01 10:57 | 33.94621 | 126.57811 | 33963 ft | 516 kts | 195° |
| 2026-05-01 10:57 | 33.87377 | 126.57055 | 33943 ft | 519 kts | 196° |
| 2026-05-01 10:57 | 33.83885 | 126.56382 | 33953 ft | 507 kts | 205° |
| 2026-05-01 10:58 | 33.80499 | 126.55138 | 33959 ft | 505 kts | 210° |
| 2026-05-01 10:58 | 33.73977 | 126.52331 | 33955 ft | 491 kts | 211° |
| 2026-05-01 10:59 | 33.67522 | 126.49526 | 33961 ft | 497 kts | 211° |
| 2026-05-01 10:59 | 33.61068 | 126.46734 | 33970 ft | 493 kts | 211° |
| 2026-05-01 11:00 | 33.54610 | 126.43940 | 33976 ft | 495 kts | 211° |
| 2026-05-01 11:00 | 33.48105 | 126.41133 | 33974 ft | 495 kts | 211° |
| 2026-05-01 11:01 | 33.41618 | 126.38341 | 33974 ft | 493 kts | 210° |
| 2026-05-01 11:01 | 33.35121 | 126.35545 | 33968 ft | 496 kts | 211° |
| 2026-05-01 11:02 | 33.28684 | 126.32786 | 33994 ft | 491 kts | 210° |
| 2026-05-01 11:02 | 33.22165 | 126.29989 | 33985 ft | 496 kts | 210° |
| 2026-05-01 11:03 | 33.15723 | 126.27236 | 33989 ft | 493 kts | 210° |
| 2026-05-01 11:03 | 33.09260 | 126.24473 | 33984 ft | 495 kts | 210° |
| 2026-05-01 11:04 | 33.02797 | 126.21719 | 33987 ft | 493 kts | 210° |
| 2026-05-01 11:04 | 32.96284 | 126.18931 | 33990 ft | 495 kts | 209° |
| 2026-05-01 11:05 | 32.89829 | 126.16161 | 34001 ft | 489 kts | 210° |
| 2026-05-01 11:05 | 32.83399 | 126.13401 | 33984 ft | 494 kts | 210° |
| 2026-05-01 11:06 | 32.76963 | 126.10646 | 33994 ft | 495 kts | 209° |
| 2026-05-01 11:06 | 32.70507 | 126.07889 | 33997 ft | 492 kts | 209° |
| 2026-05-01 11:07 | 32.60778 | 126.03739 | 33997 ft | 492 kts | 209° |
| 2026-05-01 11:07 | 32.54348 | 126.01002 | 34001 ft | 493 kts | 209° |
| 2026-05-01 11:08 | 32.47883 | 125.98256 | 34001 ft | 490 kts | 209° |
| 2026-05-01 11:09 | 32.38173 | 125.94141 | 34006 ft | 493 kts | 208° |
| 2026-05-01 11:09 | 32.31743 | 125.91422 | 34007 ft | 491 kts | 209° |
| 2026-05-01 11:10 | 32.22068 | 125.87337 | 34010 ft | 495 kts | 208° |
| 2026-05-01 11:10 | 32.15602 | 125.84615 | 34006 ft | 492 kts | 208° |
| 2026-05-01 11:11 | 32.09128 | 125.81893 | 34009 ft | 490 kts | 208° |
| 2026-05-01 11:11 | 32.02684 | 125.79185 | 34010 ft | 492 kts | 208° |
| 2026-05-01 11:12 | 31.96242 | 125.76480 | 34013 ft | 490 kts | 208° |
| 2026-05-01 11:12 | 31.89836 | 125.73787 | 34013 ft | 491 kts | 208° |
| 2026-05-01 11:13 | 31.83420 | 125.71092 | 34007 ft | 490 kts | 208° |
| 2026-05-01 11:13 | 31.76995 | 125.68401 | 34015 ft | 491 kts | 208° |
| 2026-05-01 11:14 | 31.70568 | 125.65710 | 34014 ft | 490 kts | 208° |
| 2026-05-01 11:14 | 31.64106 | 125.63003 | 34019 ft | 492 kts | 208° |
| 2026-05-01 11:15 | 31.57685 | 125.60319 | 34017 ft | 491 kts | 208° |
| 2026-05-01 11:15 | 31.51244 | 125.57628 | 34012 ft | 490 kts | 208° |
| 2026-05-01 11:16 | 31.44842 | 125.54945 | 34021 ft | 491 kts | 208° |
| 2026-05-01 11:16 | 31.38425 | 125.52261 | 34023 ft | 489 kts | 208° |
| 2026-05-01 11:17 | 31.31955 | 125.49557 | 34026 ft | 491 kts | 207° |
| 2026-05-01 11:17 | 31.25527 | 125.46876 | 34028 ft | 491 kts | 207° |
| 2026-05-01 11:18 | 31.19088 | 125.44194 | 34026 ft | 490 kts | 207° |
| 2026-05-01 11:18 | 31.12659 | 125.41520 | 34031 ft | 489 kts | 207° |
| 2026-05-01 11:19 | 31.06252 | 125.38860 | 34041 ft | 489 kts | 207° |
| 2026-05-01 11:19 | 30.99852 | 125.36205 | 34037 ft | 489 kts | 207° |
| 2026-05-01 11:20 | 30.93408 | 125.33536 | 34062 ft | 490 kts | 207° |
| 2026-05-01 11:20 | 30.86974 | 125.30875 | 34048 ft | 488 kts | 206° |
| 2026-05-01 11:21 | 30.80572 | 125.28231 | 34052 ft | 493 kts | 206° |
| 2026-05-01 11:21 | 30.74161 | 125.25590 | 34050 ft | 486 kts | 206° |
| 2026-05-01 11:22 | 30.67760 | 125.22952 | 34051 ft | 491 kts | 206° |
| 2026-05-01 11:22 | 30.61360 | 125.20322 | 34050 ft | 486 kts | 206° |
| 2026-05-01 11:23 | 30.54933 | 125.17682 | 34054 ft | 489 kts | 206° |
| 2026-05-01 11:23 | 30.48541 | 125.15062 | 34053 ft | 489 kts | 206° |
| 2026-05-01 11:24 | 30.42132 | 125.12436 | 34056 ft | 488 kts | 206° |
| 2026-05-01 11:25 | 30.32536 | 125.08511 | 34057 ft | 489 kts | 206° |
| 2026-05-01 11:25 | 30.22961 | 125.04604 | 34057 ft | 487 kts | 206° |
| 2026-05-01 11:26 | 30.13383 | 125.00701 | 34056 ft | 489 kts | 206° |
| 2026-05-01 11:27 | 30.06992 | 124.98104 | 34057 ft | 486 kts | 205° |
| 2026-05-01 11:27 | 30.00577 | 124.95498 | 34057 ft | 488 kts | 206° |
| 2026-05-01 11:28 | 29.94224 | 124.92816 | 34056 ft | 486 kts | 207° |
| 2026-05-01 11:28 | 29.87873 | 124.90093 | 34050 ft | 486 kts | 206° |
| 2026-05-01 11:29 | 29.78390 | 124.86043 | 34057 ft | 485 kts | 206° |
| 2026-05-01 11:30 | 29.68905 | 124.82004 | 34054 ft | 485 kts | 206° |
| 2026-05-01 11:30 | 29.62547 | 124.79304 | 34057 ft | 485 kts | 206° |
| 2026-05-01 11:31 | 29.56200 | 124.76611 | 34054 ft | 485 kts | 206° |
| 2026-05-01 11:31 | 29.49882 | 124.73934 | 34062 ft | 487 kts | 206° |
| 2026-05-01 11:32 | 29.43542 | 124.71254 | 34062 ft | 485 kts | 206° |
| 2026-05-01 11:32 | 29.37219 | 124.68582 | 34059 ft | 484 kts | 206° |
| 2026-05-01 11:33 | 29.30879 | 124.65907 | 34061 ft | 485 kts | 206° |
| 2026-05-01 11:33 | 29.24576 | 124.63253 | 34069 ft | 484 kts | 206° |
| 2026-05-01 11:34 | 29.18213 | 124.60575 | 34070 ft | 485 kts | 205° |
| 2026-05-01 11:34 | 29.11916 | 124.57929 | 34067 ft | 486 kts | 206° |
| 2026-05-01 11:35 | 29.05543 | 124.55255 | 34069 ft | 485 kts | 205° |
| 2026-05-01 11:35 | 28.99219 | 124.52605 | 34072 ft | 485 kts | 206° |
| 2026-05-01 11:36 | 28.93199 | 124.49277 | 34072 ft | 479 kts | 219° |
| 2026-05-01 11:36 | 28.87785 | 124.44957 | 34066 ft | 474 kts | 220° |
| 2026-05-01 11:37 | 28.82359 | 124.40589 | 34065 ft | 476 kts | 220° |
| 2026-05-01 11:37 | 28.76960 | 124.36253 | 34071 ft | 476 kts | 220° |
| 2026-05-01 11:38 | 28.71552 | 124.31918 | 34075 ft | 476 kts | 220° |
| 2026-05-01 11:38 | 28.66128 | 124.27576 | 34080 ft | 479 kts | 220° |
| 2026-05-01 11:39 | 28.60683 | 124.23225 | 34072 ft | 477 kts | 220° |
| 2026-05-01 11:39 | 28.55261 | 124.18896 | 34073 ft | 479 kts | 220° |